Toledo, OH

5:03 AM EDT on May 05, 2015 (GMT -0400)
OHDOT | | Change Station
CLOSE
Current Station
Personal Weather Station
Location: Toledo, OH
Elevation: 582 ft
Nearby Weather Stations

Elev 582 ft 41.66 °N, 83.51 °W | Updated 23 minutes ago

Mostly Cloudy
Mostly Cloudy
59 °F
Feels Like 59 °F
N
12
Wind Variable Wind from NNE
Gusts 17.0 mph

Today
High -- | Low -- °F
--% Chance of Precip.
Yesterday
High -- | Low -- °F
Precip. -- in
6:26 AM 8:36 PM
Full, 98% visible
Pressure 30.21 in
Visibility 6.0 miles
Clouds Overcast 700 ft
Dew Point 52 °F
Humidity 77%
Rainfall in
Snow Depth Not available.
UV 0 out of 12
Pollen 10.20 out of 12
Air Quality Not available.
Flu Activity Regional
METAR KTDZ 050853Z AUTO 03007KT 6SM HZ OVC007 15/12 A3021 RMK AO2 CIG 005V010 SLP230 T01500122 53011 TSNO

More Conditions Fewer Conditions

Pressure 30.21 in
Visibility 6.0 miles
Clouds Overcast 700 ft
Dew Point 52 °F
Humidity 77%
Rainfall in
Snow Depth Not available.
UV 0 out of 12
Pollen 10.20 out of 12
Air Quality Not available.
Flu Activity Regional
METAR KTDZ 050853Z AUTO 03007KT 6SM HZ OVC007 15/12 A3021 RMK AO2 CIG 005V010 SLP230 T01500122 53011 TSNO

More Conditions Fewer Conditions

Nepal has a long way to go to dig out and rebuild from a devastating earthquake. We have teamed up with several charities and organizations to make contributing to the relief effort as easy as possible.
How you can help: Portlight Strategies | Red Cross

10-Day Weather Forecast

Almanac

Astronomy

May. 05, 2015 Rise Set
Actual Time
Civil Twilight
Nautical Twilight
Astronomical Twilight
Moon
Length of Visible Light
Length of Day
Tomorrow will be .
, % of the Moon is Illuminated

Today's Extremes

State Highs State Lows

Community

WunderPhotos

Upload Photos

1,818,824 photos uploaded!

WunderBlogs® & News

Nearby

Air Quality

  Air Quality AQ Index Pollutant
Not available.

Snow Depth

Station Depth Elevation

Earthquake Activity

City Distance Mag. Time & Date
Minimum magnitude displayed is 2.5.

Coastal Water Temperatures

Place Temperature

Stations

Nearby Weather Stations

Station Location Temp. Windchill Dew Point Humidity Wind Precip. Elev Updated Type